Time;durP1;ratioP1;P1;durP2;ratioP2;P2;SDS_P1;SDS_P2;PMS_P1;PMS_P2;Temp;Humidity;BMP_temperature;BMP_pressure;BME280_temperature;BME280_humidity;BME280_pressure;Samples;Min_cycle;Max_cycle;Signal;HPM_P1;HPM_P2
2022/10/07 00:00:39;;;;;;;12.73;4.30;;;;;;;;;;6184672;23;20026;-79
2022/10/07 00:03:06;;;;;;;13.15;4.43;;;;;;;;;;6186208;23;20018;-79
2022/10/07 00:05:33;;;;;;;11.30;3.88;;;;;;;;;;6184428;23;20040;-79
2022/10/07 00:07:59;;;;;;;14.50;4.60;;;;;;;;;;6164445;23;20033;-79
2022/10/07 00:10:26;;;;;;;10.60;3.85;;;;;;;;;;6155327;23;20071;-78
2022/10/07 00:12:52;;;;;;;11.40;4.47;;;;;;;;;;6130580;23;20025;-78
2022/10/07 00:15:19;;;;;;;15.20;4.28;;;;;;;;;;6130255;23;20033;-78
2022/10/07 00:17:45;;;;;;;12.30;4.50;;;;;;;;;;6128353;23;20033;-79
2022/10/07 00:20:12;;;;;;;11.82;4.60;;;;;;;;;;6129193;23;20026;-78
2022/10/07 00:22:38;;;;;;;14.50;4.57;;;;;;;;;;6129786;23;20025;-79
2022/10/07 00:25:04;;;;;;;13.40;4.05;;;;;;;;;;6154924;23;20404;-78
2022/10/07 00:27:31;;;;;;;12.02;4.22;;;;;;;;;;6129498;23;20018;-79
2022/10/07 00:29:57;;;;;;;13.30;4.47;;;;;;;;;;6155509;23;20476;-79
2022/10/07 00:32:23;;;;;;;14.77;5.03;;;;;;;;;;6156759;23;20029;-78
2022/10/07 00:34:50;;;;;;;11.27;4.35;;;;;;;;;;6156546;23;20026;-78
2022/10/07 00:37:16;;;;;;;14.15;4.72;;;;;;;;;;6155748;23;20030;-79
2022/10/07 00:39:42;;;;;;;13.65;4.13;;;;;;;;;;6155929;23;20945;-78
2022/10/07 00:42:11;;;;;;;8.40;4.38;;;;;;;;;;6156234;23;20022;-78
2022/10/07 00:44:39;;;;;;;13.35;4.60;;;;;;;;;;6129981;23;20034;-79
2022/10/07 00:47:23;;;;;;;11.55;4.60;;;;;;;;;;6155725;23;20029;-78
2022/10/07 00:49:50;;;;;;;12.30;4.45;;;;;;;;;;6154925;23;20032;-78
2022/10/07 00:52:19;;;;;;;12.85;4.47;;;;;;;;;;6155594;23;20057;-78
2022/10/07 00:54:46;;;;;;;14.68;4.40;;;;;;;;;;6130049;23;20077;-78
2022/10/07 00:57:12;;;;;;;13.65;4.47;;;;;;;;;;6129222;23;20017;-78
2022/10/07 00:59:39;;;;;;;13.20;4.53;;;;;;;;;;6130081;23;20028;-79
2022/10/07 01:02:06;;;;;;;12.50;4.63;;;;;;;;;;6155550;23;20036;-78
2022/10/07 01:04:32;;;;;;;15.18;4.68;;;;;;;;;;6155499;23;20096;-79
2022/10/07 01:06:59;;;;;;;14.63;4.90;;;;;;;;;;6156650;23;20025;-77
2022/10/07 01:09:26;;;;;;;14.40;4.72;;;;;;;;;;6155834;23;20466;-78
2022/10/07 01:12:21;;;;;;;17.08;4.50;;;;;;;;;;6129324;23;20744;-78
2022/10/07 01:14:56;;;;;;;12.80;4.50;;;;;;;;;;6050794;23;20825;-78
2022/10/07 01:17:29;;;;;;;10.75;4.20;;;;;;;;;;6129298;23;20026;-78
2022/10/07 01:20:13;;;;;;;13.90;5.20;;;;;;;;;;6154968;23;20025;-79
2022/10/07 01:22:46;;;;;;;12.23;4.78;;;;;;;;;;6129630;23;20053;-78
2022/10/07 01:25:18;;;;;;;12.13;4.57;;;;;;;;;;6155788;23;20089;-78
2022/10/07 01:27:53;;;;;;;13.13;5.00;;;;;;;;;;6155661;23;20029;-77
2022/10/07 01:30:19;;;;;;;10.65;3.95;;;;;;;;;;6158170;23;20025;-78
2022/10/07 01:32:51;;;;;;;17.98;4.63;;;;;;;;;;6132832;23;20064;-79
2022/10/07 01:35:26;;;;;;;15.00;4.63;;;;;;;;;;6133109;23;20029;-79
2022/10/07 01:37:59;;;;;;;16.83;4.78;;;;;;;;;;6133447;23;20037;-78
2022/10/07 01:40:27;;;;;;;13.40;4.30;;;;;;;;;;6131845;23;20026;-79
2022/10/07 01:42:54;;;;;;;15.23;4.30;;;;;;;;;;6158489;23;20030;-78
2022/10/07 01:45:22;;;;;;;12.77;4.50;;;;;;;;;;6132934;23;20038;-80
2022/10/07 01:47:51;;;;;;;9.15;4.43;;;;;;;;;;6158426;23;20025;-80
2022/10/07 01:50:21;;;;;;;14.77;4.72;;;;;;;;;;6158580;23;20591;-78
2022/10/07 01:53:11;;;;;;;14.60;5.25;;;;;;;;;;6131945;23;20038;-78
2022/10/07 01:55:37;;;;;;;12.07;4.53;;;;;;;;;;6133162;23;20037;-79
2022/10/07 01:58:19;;;;;;;15.45;5.45;;;;;;;;;;6159304;23;20018;-79
2022/10/07 02:00:47;;;;;;;13.68;4.65;;;;;;;;;;6133469;23;20026;-79
2022/10/07 02:03:37;;;;;;;12.10;4.75;;;;;;;;;;6133720;23;20064;-79
2022/10/07 02:06:03;;;;;;;13.68;4.65;;;;;;;;;;6132550;23;20105;-80
2022/10/07 02:08:30;;;;;;;22.08;4.78;;;;;;;;;;6185870;23;20029;-79
2022/10/07 02:11:06;;;;;;;12.82;4.68;;;;;;;;;;6189950;23;20018;-79
2022/10/07 02:13:40;;;;;;;13.35;4.10;;;;;;;;;;6188036;23;20034;-79
2022/10/07 02:16:10;;;;;;;16.85;4.60;;;;;;;;;;6187282;23;20029;-79
2022/10/07 02:18:39;;;;;;;19.08;5.82;;;;;;;;;;6188310;23;20021;-79
2022/10/07 02:21:07;;;;;;;14.60;5.05;;;;;;;;;;6189261;23;20553;-80
2022/10/07 02:23:35;;;;;;;20.52;5.50;;;;;;;;;;6188253;23;20060;-79
2022/10/07 02:26:03;;;;;;;10.98;4.45;;;;;;;;;;6188737;23;20100;-79
2022/10/07 02:28:31;;;;;;;17.00;5.03;;;;;;;;;;6187011;23;20032;-79
2022/10/07 02:31:00;;;;;;;17.88;5.15;;;;;;;;;;6188628;23;20080;-80
2022/10/07 02:33:27;;;;;;;16.27;5.07;;;;;;;;;;6189902;23;20141;-79
2022/10/07 02:35:59;;;;;;;16.98;6.05;;;;;;;;;;6188425;23;20030;-79
2022/10/07 02:38:25;;;;;;;17.88;5.50;;;;;;;;;;6188698;23;20537;-79
2022/10/07 02:41:05;;;;;;;15.68;5.90;;;;;;;;;;6186104;23;20036;-78
2022/10/07 02:43:55;;;;;;;20.98;5.55;;;;;;;;;;6186234;23;20030;-79
2022/10/07 02:46:24;;;;;;;18.77;5.57;;;;;;;;;;6186150;23;20068;-79
2022/10/07 02:48:57;;;;;;;16.47;5.33;;;;;;;;;;6185068;23;20475;-80
2022/10/07 02:51:26;;;;;;;12.80;5.60;;;;;;;;;;6186733;23;20032;-79
2022/10/07 02:53:54;;;;;;;14.00;4.88;;;;;;;;;;6185382;23;20014;-79
2022/10/07 02:56:21;;;;;;;15.63;5.03;;;;;;;;;;6185333;23;20029;-79
2022/10/07 02:58:48;;;;;;;12.90;5.25;;;;;;;;;;6183900;23;20041;-79
2022/10/07 03:01:16;;;;;;;22.55;6.00;;;;;;;;;;6183411;23;20033;-79
2022/10/07 03:03:43;;;;;;;12.75;5.10;;;;;;;;;;6185012;23;20057;-80
2022/10/07 03:06:11;;;;;;;20.38;5.85;;;;;;;;;;6186281;23;20034;-79
2022/10/07 03:08:37;;;;;;;18.15;5.70;;;;;;;;;;6186952;23;20030;-80
2022/10/07 03:11:04;;;;;;;16.85;5.25;;;;;;;;;;6184484;23;21203;-79
2022/10/07 03:13:30;;;;;;;12.98;5.68;;;;;;;;;;6185264;23;20081;-79
2022/10/07 03:15:57;;;;;;;17.50;5.65;;;;;;;;;;6185329;23;20034;-79
2022/10/07 03:18:27;;;;;;;19.58;5.95;;;;;;;;;;6186720;23;20056;-79
2022/10/07 03:20:54;;;;;;;18.50;6.03;;;;;;;;;;6186699;23;20032;-79
2022/10/07 03:23:24;;;;;;;15.40;5.72;;;;;;;;;;6184671;23;20037;-79
2022/10/07 03:25:51;;;;;;;21.30;5.20;;;;;;;;;;6185422;23;20034;-81
2022/10/07 03:28:21;;;;;;;19.73;6.00;;;;;;;;;;6186626;23;20030;-79
2022/10/07 03:30:48;;;;;;;19.00;5.32;;;;;;;;;;6186656;23;20018;-79
2022/10/07 03:33:15;;;;;;;22.33;6.10;;;;;;;;;;6185600;23;20030;-81
2022/10/07 03:35:42;;;;;;;13.50;5.00;;;;;;;;;;6185404;23;20107;-79
2022/10/07 03:38:09;;;;;;;20.50;5.60;;;;;;;;;;6186161;23;20029;-80
2022/10/07 03:40:38;;;;;;;12.00;5.15;;;;;;;;;;6185183;23;20371;-79
2022/10/07 03:43:04;;;;;;;17.92;5.53;;;;;;;;;;6185209;23;20025;-79
2022/10/07 03:45:31;;;;;;;13.23;4.68;;;;;;;;;;6186590;23;20021;-78
2022/10/07 03:47:58;;;;;;;15.55;5.40;;;;;;;;;;6184382;23;20051;-78
2022/10/07 03:50:25;;;;;;;14.32;5.10;;;;;;;;;;6186486;23;20029;-79
2022/10/07 03:52:51;;;;;;;14.45;4.82;;;;;;;;;;6185962;23;20040;-79
2022/10/07 03:55:18;;;;;;;20.08;5.88;;;;;;;;;;6184642;23;20435;-79
2022/10/07 03:57:50;;;;;;;16.92;5.28;;;;;;;;;;6185666;23;20021;-78
2022/10/07 04:00:23;;;;;;;19.90;5.32;;;;;;;;;;6186089;23;20030;-78
2022/10/07 04:02:50;;;;;;;16.23;5.65;;;;;;;;;;6186503;23;20489;-78
2022/10/07 04:05:17;;;;;;;18.73;5.18;;;;;;;;;;6186930;23;20029;-79
2022/10/07 04:07:44;;;;;;;20.13;5.45;;;;;;;;;;6185665;23;20030;-79
2022/10/07 04:10:13;;;;;;;17.45;5.40;;;;;;;;;;6185017;23;20881;-78
2022/10/07 04:12:40;;;;;;;18.98;4.82;;;;;;;;;;6187093;23;20010;-79
2022/10/07 04:15:06;;;;;;;14.82;5.22;;;;;;;;;;6186654;23;20493;-79
2022/10/07 04:17:33;;;;;;;18.65;4.70;;;;;;;;;;6184794;23;20038;-78
2022/10/07 04:19:59;;;;;;;21.20;5.53;;;;;;;;;;6184798;23;20064;-79
2022/10/07 04:22:26;;;;;;;18.65;4.65;;;;;;;;;;6184849;23;20035;-79
2022/10/07 04:27:37;;;;;;;20.88;5.10;;;;;;;;;;6186139;23;20036;-79
2022/10/07 04:30:17;;;;;;;12.52;4.40;;;;;;;;;;6186642;23;20026;-79
2022/10/07 04:32:43;;;;;;;14.32;4.70;;;;;;;;;;6184870;23;20485;-79
2022/10/07 04:35:09;;;;;;;10.88;4.25;;;;;;;;;;6185456;23;20048;-79
2022/10/07 04:37:36;;;;;;;16.17;4.88;;;;;;;;;;6185999;23;20033;-79
2022/10/07 04:40:02;;;;;;;10.88;4.70;;;;;;;;;;6185153;23;20036;-78
2022/10/07 04:45:13;;;;;;;20.42;4.55;;;;;;;;;;6186129;23;20021;-78
2022/10/07 04:47:40;;;;;;;15.02;4.55;;;;;;;;;;6183393;23;20492;-79
2022/10/07 04:50:06;;;;;;;13.82;4.07;;;;;;;;;;6185351;23;20029;-79
2022/10/07 04:52:33;;;;;;;11.57;4.60;;;;;;;;;;6185972;23;20822;-78
2022/10/07 04:54:59;;;;;;;18.58;4.60;;;;;;;;;;6184552;23;20029;-78
2022/10/07 04:57:25;;;;;;;16.00;4.50;;;;;;;;;;6184431;23;20019;-79
2022/10/07 04:59:52;;;;;;;16.83;4.47;;;;;;;;;;6183693;23;20025;-78
2022/10/07 05:02:18;;;;;;;15.85;5.03;;;;;;;;;;6185337;23;20033;-79
2022/10/07 05:04:46;;;;;;;17.05;4.50;;;;;;;;;;6186177;23;20021;-79
2022/10/07 05:07:12;;;;;;;14.18;3.95;;;;;;;;;;6185886;23;20033;-79
2022/10/07 05:09:38;;;;;;;19.10;4.53;;;;;;;;;;6186079;23;20033;-80
2022/10/07 05:12:05;;;;;;;11.20;4.32;;;;;;;;;;6185992;23;20026;-79
2022/10/07 05:14:33;;;;;;;18.50;4.45;;;;;;;;;;6185541;23;20052;-79
2022/10/07 05:16:59;;;;;;;14.73;4.72;;;;;;;;;;6187401;23;20552;-79
2022/10/07 05:19:28;;;;;;;11.82;4.00;;;;;;;;;;6186775;23;20036;-79
2022/10/07 05:21:55;;;;;;;13.60;4.35;;;;;;;;;;6187171;23;20036;-79
2022/10/07 05:24:21;;;;;;;19.55;4.78;;;;;;;;;;6185984;23;20040;-79
2022/10/07 05:26:49;;;;;;;15.25;4.22;;;;;;;;;;6186026;23;20041;-79
2022/10/07 05:29:15;;;;;;;16.80;3.88;;;;;;;;;;6186865;23;20037;-78
2022/10/07 05:31:41;;;;;;;19.30;4.20;;;;;;;;;;6186432;23;20076;-79
2022/10/07 05:34:08;;;;;;;17.50;3.97;;;;;;;;;;6185402;23;20033;-79
2022/10/07 05:36:34;;;;;;;18.27;4.20;;;;;;;;;;6185329;23;20021;-79
2022/10/07 05:39:00;;;;;;;14.93;4.57;;;;;;;;;;6184986;23;20029;-79
2022/10/07 05:41:27;;;;;;;16.23;3.75;;;;;;;;;;6186302;23;20026;-79
2022/10/07 05:43:54;;;;;;;16.83;3.58;;;;;;;;;;6186974;23;20033;-79
2022/10/07 05:46:21;;;;;;;11.95;3.30;;;;;;;;;;6186562;23;20054;-78
2022/10/07 05:48:50;;;;;;;13.52;3.72;;;;;;;;;;6185458;23;20057;-80
2022/10/07 05:51:17;;;;;;;14.27;4.03;;;;;;;;;;6184962;23;20029;-79
2022/10/07 05:53:45;;;;;;;17.90;4.20;;;;;;;;;;6186008;23;20467;-79
2022/10/07 05:56:16;;;;;;;13.02;3.72;;;;;;;;;;6184682;23;20032;-78
2022/10/07 05:58:43;;;;;;;;;;;;;;;;;;6186357;23;20060;-79
2022/10/07 06:01:14;;;;;;;17.33;3.72;;;;;;;;;;6183554;23;47335;-80
2022/10/07 06:03:41;;;;;;;10.02;4.13;;;;;;;;;;6186351;23;20032;-79
2022/10/07 06:06:07;;;;;;;15.55;3.85;;;;;;;;;;6185295;23;20033;-79
2022/10/07 06:08:34;;;;;;;15.73;4.45;;;;;;;;;;6156932;23;20065;-78
2022/10/07 06:13:56;;;;;;;12.63;3.88;;;;;;;;;;6075003;23;20028;-79
2022/10/07 06:16:23;;;;;;;16.67;4.05;;;;;;;;;;6130728;23;20037;-79
2022/10/07 06:18:51;;;;;;;15.27;3.53;;;;;;;;;;6157651;23;20538;-78
2022/10/07 06:21:18;;;;;;;19.98;4.13;;;;;;;;;;6130650;23;20033;-78
2022/10/07 06:23:50;;;;;;;12.98;3.28;;;;;;;;;;6131945;23;20104;-79
2022/10/07 06:26:16;;;;;;;16.88;3.25;;;;;;;;;;6131078;23;20030;-79
2022/10/07 06:28:42;;;;;;;13.25;3.08;;;;;;;;;;6131216;23;20033;-80
2022/10/07 06:31:10;;;;;;;16.13;4.05;;;;;;;;;;6131663;23;20049;-79
2022/10/07 06:33:37;;;;;;;22.08;3.97;;;;;;;;;;6156792;23;20026;-80
2022/10/07 06:36:04;;;;;;;12.27;3.30;;;;;;;;;;6130961;23;20022;-80
2022/10/07 06:38:31;;;;;;;13.15;3.30;;;;;;;;;;6157129;23;20026;-79
2022/10/07 06:40:58;;;;;;;11.90;3.33;;;;;;;;;;6156863;23;20034;-80
2022/10/07 06:43:31;;;;;;;19.20;3.53;;;;;;;;;;6131155;23;20368;-79
2022/10/07 06:46:00;;;;;;;17.50;4.10;;;;;;;;;;6131511;23;20041;-79
2022/10/07 06:48:27;;;;;;;13.50;2.97;;;;;;;;;;6157715;23;20077;-79
2022/10/07 06:50:54;;;;;;;17.15;3.72;;;;;;;;;;6131816;23;20383;-79
2022/10/07 06:53:21;;;;;;;13.18;2.78;;;;;;;;;;6156987;23;20506;-79
2022/10/07 06:55:50;;;;;;;19.67;2.75;;;;;;;;;;6131094;23;20025;-78
2022/10/07 06:58:17;;;;;;;21.88;4.57;;;;;;;;;;6129795;23;20026;-79
2022/10/07 07:00:47;;;;;;;16.05;3.20;;;;;;;;;;6129766;23;20030;-79
2022/10/07 07:03:14;;;;;;;;;;;;;;;;;;6158450;23;20391;-79
2022/10/07 07:05:41;;;;;;;20.48;3.65;;;;;;;;;;6157074;23;46907;-79
2022/10/07 07:08:11;;;;;;;13.98;2.72;;;;;;;;;;6156550;23;20022;-80
2022/10/07 07:10:38;;;;;;;10.43;3.00;;;;;;;;;;6131621;23;20030;-80
2022/10/07 07:13:06;;;;;;;15.85;2.95;;;;;;;;;;6131633;23;20034;-80
2022/10/07 07:15:36;;;;;;;15.50;3.35;;;;;;;;;;6132154;23;20053;-79
2022/10/07 07:18:06;;;;;;;13.48;3.17;;;;;;;;;;6157422;23;20029;-79
2022/10/07 07:20:34;;;;;;;15.32;3.08;;;;;;;;;;6131279;23;20026;-80
2022/10/07 07:23:01;;;;;;;13.73;2.60;;;;;;;;;;6131322;23;20093;-79
2022/10/07 07:25:27;;;;;;;13.65;2.97;;;;;;;;;;6157253;23;20030;-79
2022/10/07 07:27:55;;;;;;;15.07;2.60;;;;;;;;;;6157439;23;20108;-79
2022/10/07 07:30:23;;;;;;;13.23;2.80;;;;;;;;;;6131856;23;20037;-79
2022/10/07 07:32:50;;;;;;;12.40;2.70;;;;;;;;;;6131440;23;20021;-78
2022/10/07 07:35:16;;;;;;;12.77;3.47;;;;;;;;;;6156310;23;20033;-79
2022/10/07 07:37:43;;;;;;;13.85;2.58;;;;;;;;;;6157360;23;20022;-79
2022/10/07 07:40:09;;;;;;;12.55;2.47;;;;;;;;;;6131987;23;20022;-79
2022/10/07 07:42:36;;;;;;;16.70;2.58;;;;;;;;;;6157729;23;20854;-79
2022/10/07 07:45:02;;;;;;;18.48;3.05;;;;;;;;;;6157938;23;20033;-80
2022/10/07 07:47:29;;;;;;;16.30;2.72;;;;;;;;;;6130542;23;20030;-78
2022/10/07 07:49:55;;;;;;;11.65;2.15;;;;;;;;;;6132387;23;20968;-80
2022/10/07 07:52:24;;;;;;;14.55;2.75;;;;;;;;;;6131519;23;21082;-80
2022/10/07 07:54:51;;;;;;;13.93;2.45;;;;;;;;;;6157942;23;20038;-78
2022/10/07 07:57:17;;;;;;;12.63;2.90;;;;;;;;;;6130915;23;20034;-80
2022/10/07 07:59:43;;;;;;;15.80;3.55;;;;;;;;;;6156778;23;20045;-79
2022/10/07 08:02:11;;;;;;;14.63;2.67;;;;;;;;;;6131361;23;20026;-80
2022/10/07 08:04:37;;;;;;;11.52;2.65;;;;;;;;;;6131170;23;20026;-80
2022/10/07 08:07:04;;;;;;;13.30;2.75;;;;;;;;;;6157026;23;20037;-80
2022/10/07 08:09:30;;;;;;;12.48;2.78;;;;;;;;;;6130198;23;20030;-79
2022/10/07 08:11:58;;;;;;;12.63;2.97;;;;;;;;;;6157090;23;20038;-79
2022/10/07 08:14:24;;;;;;;10.85;2.60;;;;;;;;;;6129337;23;20026;-79
2022/10/07 08:16:50;;;;;;;15.18;2.80;;;;;;;;;;6155077;23;20487;-79
2022/10/07 08:19:17;;;;;;;14.43;2.63;;;;;;;;;;6129500;23;20041;-79
2022/10/07 08:21:43;;;;;;;14.43;2.92;;;;;;;;;;6155287;23;20431;-79
2022/10/07 08:24:10;;;;;;;15.52;2.92;;;;;;;;;;6129367;23;20029;-78
2022/10/07 08:26:37;;;;;;;23.05;3.00;;;;;;;;;;6130601;23;20057;-80
2022/10/07 08:29:03;;;;;;;17.17;2.95;;;;;;;;;;6154914;23;20859;-80
2022/10/07 08:31:30;;;;;;;16.23;2.90;;;;;;;;;;6156093;23;20026;-78
2022/10/07 08:33:58;;;;;;;13.77;3.15;;;;;;;;;;6130730;23;20371;-79
2022/10/07 08:36:25;;;;;;;16.88;3.53;;;;;;;;;;6156836;23;20059;-79
2022/10/07 08:38:52;;;;;;;12.65;2.95;;;;;;;;;;6155829;23;20921;-79
2022/10/07 08:41:24;;;;;;;18.35;2.72;;;;;;;;;;6155569;23;20036;-79
2022/10/07 08:43:51;;;;;;;14.23;3.30;;;;;;;;;;6157537;23;20033;-79
2022/10/07 08:46:19;;;;;;;20.05;3.13;;;;;;;;;;6131363;23;20034;-80
2022/10/07 08:48:54;;;;;;;10.43;2.65;;;;;;;;;;6130772;23;20093;-81
2022/10/07 08:51:25;;;;;;;15.27;2.55;;;;;;;;;;6156932;23;20030;-80
2022/10/07 08:53:54;;;;;;;19.55;3.00;;;;;;;;;;6157719;23;20030;-80
2022/10/07 08:56:22;;;;;;;16.15;3.60;;;;;;;;;;6130490;23;20084;-81
2022/10/07 08:59:27;;;;;;;13.05;3.10;;;;;;;;;;6130513;23;20026;-82
2022/10/07 09:01:59;;;;;;;14.82;2.78;;;;;;;;;;6037067;23;20501;-80
2022/10/07 09:04:32;;;;;;;20.77;3.78;;;;;;;;;;6013745;23;20020;-80
2022/10/07 09:07:01;;;;;;;15.23;3.85;;;;;;;;;;6093370;23;20095;-82
2022/10/07 09:09:31;;;;;;;17.65;2.85;;;;;;;;;;6184908;23;20017;-81
2022/10/07 09:11:59;;;;;;;20.60;3.40;;;;;;;;;;6186001;23;20473;-80
2022/10/07 09:14:25;;;;;;;14.77;2.75;;;;;;;;;;6182795;23;20025;-80
2022/10/07 09:16:53;;;;;;;12.80;2.60;;;;;;;;;;6184548;23;20033;-79
2022/10/07 09:19:43;;;;;;;12.77;2.83;;;;;;;;;;6184252;23;20036;-81
2022/10/07 09:22:15;;;;;;;14.30;3.30;;;;;;;;;;6171731;23;20025;-78
2022/10/07 09:24:41;;;;;;;14.88;2.60;;;;;;;;;;6181978;23;20482;-78
2022/10/07 09:27:12;;;;;;;11.35;2.63;;;;;;;;;;6181939;23;20033;-80
2022/10/07 09:29:38;;;;;;;14.45;2.60;;;;;;;;;;6181383;23;20036;-80
2022/10/07 09:32:04;;;;;;;11.27;2.83;;;;;;;;;;6184258;23;20029;-79
2022/10/07 09:34:31;;;;;;;16.42;2.50;;;;;;;;;;6182795;23;20033;-80
2022/10/07 09:37:20;;;;;;;9.00;2.03;;;;;;;;;;6182390;23;20395;-78
2022/10/07 09:39:50;;;;;;;11.07;2.28;;;;;;;;;;6184780;23;20041;-80
2022/10/07 09:42:32;;;;;;;13.13;2.90;;;;;;;;;;6182374;23;20119;-80
2022/10/07 09:45:00;;;;;;;10.88;2.10;;;;;;;;;;6184028;23;20025;-80
2022/10/07 09:47:29;;;;;;;12.25;2.58;;;;;;;;;;6182108;23;20025;-80
2022/10/07 09:49:58;;;;;;;11.57;2.40;;;;;;;;;;6184296;23;20029;-79
2022/10/07 09:52:26;;;;;;;11.40;2.47;;;;;;;;;;6183731;23;20080;-79
2022/10/07 09:54:54;;;;;;;12.02;2.55;;;;;;;;;;6185859;23;20006;-79
2022/10/07 09:57:29;;;;;;;13.65;2.40;;;;;;;;;;6182945;23;20026;-79
2022/10/07 10:00:28;;;;;;;12.52;1.85;;;;;;;;;;6182306;23;20017;-80
2022/10/07 10:02:59;;;;;;;13.85;2.30;;;;;;;;;;6135592;23;20026;-79
2022/10/07 10:05:32;;;;;;;15.48;2.83;;;;;;;;;;6185212;23;20502;-78
2022/10/07 10:08:00;;;;;;;12.98;2.42;;;;;;;;;;6166871;23;20018;-82
2022/10/07 10:10:33;;;;;;;10.68;2.08;;;;;;;;;;6128643;23;20033;-79
2022/10/07 10:13:01;;;;;;;18.35;2.30;;;;;;;;;;6155659;23;20030;-78
2022/10/07 10:15:38;;;;;;;18.27;2.83;;;;;;;;;;6128912;23;20041;-79
2022/10/07 10:18:25;;;;;;;12.07;2.38;;;;;;;;;;6154843;23;20057;-79
2022/10/07 10:20:51;;;;;;;10.73;2.03;;;;;;;;;;6113448;23;20026;-79
2022/10/07 10:23:26;;;;;;;13.00;2.40;;;;;;;;;;6155288;23;20478;-79
2022/10/07 10:28:48;;;;;;;9.80;2.30;;;;;;;;;;6156088;23;20033;-80
2022/10/07 10:31:35;;;;;;;11.18;2.15;;;;;;;;;;6156461;23;20063;-80
2022/10/07 10:34:06;;;;;;;14.30;2.45;;;;;;;;;;6156520;23;20022;-80
2022/10/07 10:36:32;;;;;;;;;;;;;;;;;;6130937;23;20030;-80
2022/10/07 10:39:01;;;;;;;9.98;2.28;;;;;;;;;;6129468;23;44030;-80
2022/10/07 10:41:34;;;;;;;9.23;2.28;;;;;;;;;;6129818;23;20029;-78
2022/10/07 10:44:09;;;;;;;10.05;2.38;;;;;;;;;;6128678;23;20030;-79
2022/10/07 10:46:46;;;;;;;10.43;2.10;;;;;;;;;;6129980;23;20037;-79
2022/10/07 10:49:27;;;;;;;13.77;2.80;;;;;;;;;;6130529;23;20065;-78
2022/10/07 10:52:01;;;;;;;15.30;2.85;;;;;;;;;;6129501;23;20034;-80
2022/10/07 10:54:47;;;;;;;12.70;2.42;;;;;;;;;;6128671;23;20025;-79
2022/10/07 10:57:25;;;;;;;10.38;2.05;;;;;;;;;;6128303;23;20026;-80
2022/10/07 11:00:06;;;;;;;9.80;1.95;;;;;;;;;;6153838;23;20030;-80
2022/10/07 11:02:35;;;;;;;11.82;2.20;;;;;;;;;;6155883;23;20105;-80
2022/10/07 11:05:05;;;;;;;15.93;2.28;;;;;;;;;;6130718;23;20069;-79
2022/10/07 11:07:34;;;;;;;11.57;2.20;;;;;;;;;;6157130;23;20036;-80
2022/10/07 11:10:03;;;;;;;17.42;2.38;;;;;;;;;;6183768;23;20040;-79
2022/10/07 11:12:37;;;;;;;11.27;2.40;;;;;;;;;;6183553;23;20465;-80
2022/10/07 11:15:25;;;;;;;10.43;2.20;;;;;;;;;;6183729;23;20025;-79
2022/10/07 11:17:52;;;;;;;11.85;2.42;;;;;;;;;;6184216;23;20026;-81
2022/10/07 11:20:27;;;;;;;9.70;2.10;;;;;;;;;;6183615;23;20077;-79
2022/10/07 11:22:55;;;;;;;12.68;2.50;;;;;;;;;;6185509;23;20689;-78
2022/10/07 11:25:24;;;;;;;9.10;2.20;;;;;;;;;;6182776;23;20112;-82
2022/10/07 11:27:52;;;;;;;8.32;1.90;;;;;;;;;;6182962;23;20036;-80
2022/10/07 11:30:21;;;;;;;11.55;2.10;;;;;;;;;;6183930;23;20033;-80
2022/10/07 11:32:54;;;;;;;11.60;1.77;;;;;;;;;;6184886;23;20025;-79
2022/10/07 11:35:21;;;;;;;12.13;2.55;;;;;;;;;;6182477;23;20022;-80
2022/10/07 11:37:59;;;;;;;13.20;1.80;;;;;;;;;;6185186;23;20044;-80
2022/10/07 11:40:27;;;;;;;9.15;1.90;;;;;;;;;;6183060;23;20029;-79
2022/10/07 11:43:01;;;;;;;10.48;2.08;;;;;;;;;;6184020;23;20029;-80
2022/10/07 11:45:36;;;;;;;11.13;1.67;;;;;;;;;;6184011;23;20039;-80
2022/10/07 11:48:06;;;;;;;6.50;1.85;;;;;;;;;;6183483;23;20075;-79
2022/10/07 11:50:36;;;;;;;10.35;1.75;;;;;;;;;;6185278;23;20053;-80
2022/10/07 11:53:08;;;;;;;12.93;1.70;;;;;;;;;;6185093;23;20033;-79
2022/10/07 11:55:39;;;;;;;10.00;2.00;;;;;;;;;;6183855;23;20033;-80
2022/10/07 11:58:18;;;;;;;4.90;1.20;;;;;;;;;;6185183;23;20051;-80
2022/10/07 12:00:45;;;;;;;7.47;1.58;;;;;;;;;;6185002;23;20887;-80
2022/10/07 12:03:11;;;;;;;9.38;1.65;;;;;;;;;;6184566;23;20029;-80
2022/10/07 12:05:37;;;;;;;7.38;2.05;;;;;;;;;;6183995;23;20093;-80
2022/10/07 12:08:17;;;;;;;8.20;1.63;;;;;;;;;;6185009;23;20084;-79
2022/10/07 12:10:43;;;;;;;9.20;1.75;;;;;;;;;;6187492;23;20029;-79
2022/10/07 12:13:09;;;;;;;9.07;1.83;;;;;;;;;;6187494;23;20033;-80
2022/10/07 12:15:43;;;;;;;11.40;1.67;;;;;;;;;;6186180;23;20917;-79
2022/10/07 12:18:10;;;;;;;11.00;1.98;;;;;;;;;;6185505;23;20813;-77
2022/10/07 12:20:44;;;;;;;7.95;1.80;;;;;;;;;;6183104;23;20030;-78
2022/10/07 12:23:19;;;;;;;9.68;1.70;;;;;;;;;;6186682;23;20470;-78
2022/10/07 12:25:47;;;;;;;10.38;1.83;;;;;;;;;;6186190;23;20033;-77
2022/10/07 12:28:33;;;;;;;11.27;1.80;;;;;;;;;;6184178;23;20036;-80
2022/10/07 12:31:01;;;;;;;12.55;2.08;;;;;;;;;;6184364;23;20471;-77
2022/10/07 12:33:33;;;;;;;8.40;1.77;;;;;;;;;;6186103;23;20037;-77
2022/10/07 12:36:20;;;;;;;10.85;1.70;;;;;;;;;;6185362;23;20375;-78
2022/10/07 12:38:55;;;;;;;9.43;1.35;;;;;;;;;;6185484;23;20029;-78
2022/10/07 12:41:25;;;;;;;7.68;1.50;;;;;;;;;;6186000;23;20124;-75
2022/10/07 12:44:11;;;;;;;9.82;1.92;;;;;;;;;;6185229;23;20030;-78
2022/10/07 12:46:44;;;;;;;11.90;1.77;;;;;;;;;;6184844;23;20025;-77
2022/10/07 12:49:12;;;;;;;6.45;1.63;;;;;;;;;;6184010;23;20036;-78
2022/10/07 12:51:39;;;;;;;7.60;1.58;;;;;;;;;;6181949;23;20030;-78
2022/10/07 12:54:17;;;;;;;8.48;1.67;;;;;;;;;;6183392;23;20037;-78
2022/10/07 12:56:43;;;;;;;11.00;1.75;;;;;;;;;;6184112;23;20029;-78
2022/10/07 12:59:48;;;;;;;13.30;2.00;;;;;;;;;;6184101;23;20018;-78
2022/10/07 13:02:42;;;;;;;11.13;2.03;;;;;;;;;;6184685;23;20040;-78
2022/10/07 13:05:28;;;;;;;12.68;2.00;;;;;;;;;;6184548;23;20053;-78
2022/10/07 13:08:01;;;;;;;12.90;2.03;;;;;;;;;;6184072;23;20025;-78
2022/10/07 13:10:46;;;;;;;10.00;1.95;;;;;;;;;;6185243;23;20033;-78
2022/10/07 13:13:15;;;;;;;8.93;1.85;;;;;;;;;;6187452;23;20025;-78
2022/10/07 13:15:45;;;;;;;7.85;1.83;;;;;;;;;;6185317;23;20033;-77
2022/10/07 13:18:11;;;;;;;12.20;2.03;;;;;;;;;;6184331;23;20022;-78
2022/10/07 13:20:57;;;;;;;11.50;1.80;;;;;;;;;;6183180;23;20033;-78
2022/10/07 13:23:25;;;;;;;6.68;1.65;;;;;;;;;;6186111;23;20041;-78
2022/10/07 13:25:53;;;;;;;15.85;2.42;;;;;;;;;;6184751;23;20077;-78
2022/10/07 13:28:21;;;;;;;12.10;1.80;;;;;;;;;;6187717;23;20040;-78
2022/10/07 13:30:49;;;;;;;10.85;2.10;;;;;;;;;;6186826;23;20481;-79
2022/10/07 13:33:18;;;;;;;7.78;1.70;;;;;;;;;;6186373;23;20026;-79
2022/10/07 13:35:45;;;;;;;11.95;2.25;;;;;;;;;;6184986;23;20033;-77
2022/10/07 13:38:24;;;;;;;11.48;1.73;;;;;;;;;;6185776;23;20333;-78
2022/10/07 13:40:52;;;;;;;13.00;1.80;;;;;;;;;;6185042;23;20073;-76
2022/10/07 13:43:19;;;;;;;12.13;2.20;;;;;;;;;;6184942;23;20250;-79
2022/10/07 13:45:46;;;;;;;9.45;1.60;;;;;;;;;;6186004;23;20025;-80
2022/10/07 13:48:34;;;;;;;16.40;2.40;;;;;;;;;;6186803;23;20057;-79
2022/10/07 13:51:01;;;;;;;9.70;1.75;;;;;;;;;;6186540;23;20028;-80
2022/10/07 13:53:33;;;;;;;7.90;2.00;;;;;;;;;;6185841;23;20022;-77
2022/10/07 13:56:03;;;;;;;10.55;2.00;;;;;;;;;;6186940;23;20033;-79
2022/10/07 13:58:32;;;;;;;8.70;2.10;;;;;;;;;;6185338;23;20026;-79
2022/10/07 14:01:01;;;;;;;9.52;2.22;;;;;;;;;;6186343;23;20509;-78
2022/10/07 14:03:28;;;;;;;9.27;1.63;;;;;;;;;;6185947;23;20014;-77
2022/10/07 14:05:55;;;;;;;13.30;2.20;;;;;;;;;;6187853;23;20399;-78
2022/10/07 14:08:23;;;;;;;11.57;2.20;;;;;;;;;;6185640;23;20037;-79
2022/10/07 14:11:02;;;;;;;7.47;1.75;;;;;;;;;;6186140;23;20026;-78
2022/10/07 14:13:29;;;;;;;8.68;1.83;;;;;;;;;;6187691;23;20026;-77
2022/10/07 14:15:57;;;;;;;7.38;1.65;;;;;;;;;;6188048;23;20039;-80
2022/10/07 14:18:26;;;;;;;11.43;2.30;;;;;;;;;;6185197;23;20025;-79
2022/10/07 14:20:54;;;;;;;6.10;1.30;;;;;;;;;;6187273;23;20026;-79
2022/10/07 14:23:27;;;;;;;9.35;2.20;;;;;;;;;;6187765;23;20470;-78
2022/10/07 14:25:54;;;;;;;8.77;1.80;;;;;;;;;;6183496;23;20037;-79
2022/10/07 14:28:23;;;;;;;10.95;2.15;;;;;;;;;;6182156;23;20029;-79
2022/10/07 14:37:00;;;;;;;11.55;1.77;;;;;;;;;;6183782;23;20038;-79
2022/10/07 14:39:38;;;;;;;11.15;1.80;;;;;;;;;;6185267;23;20021;-79
2022/10/07 14:42:08;;;;;;;12.20;1.80;;;;;;;;;;6183080;23;20460;-80
2022/10/07 14:44:35;;;;;;;;;;;;;;;;;;6186370;23;20036;-80
2022/10/07 14:47:11;;;;;;;8.65;1.90;;;;;;;;;;6182512;23;42877;-80
2022/10/07 14:49:40;;;;;;;9.32;1.80;;;;;;;;;;6185586;23;20029;-80
2022/10/07 14:52:09;;;;;;;6.20;1.92;;;;;;;;;;6183462;23;20030;-79
2022/10/07 14:54:35;;;;;;;7.82;1.80;;;;;;;;;;6183663;23;20545;-80
2022/10/07 14:57:01;;;;;;;10.95;2.15;;;;;;;;;;6185945;23;20037;-79
2022/10/07 14:59:28;;;;;;;13.15;2.75;;;;;;;;;;6183613;23;20032;-80
2022/10/07 15:01:55;;;;;;;10.65;1.92;;;;;;;;;;6185609;23;20033;-80
2022/10/07 15:04:22;;;;;;;14.68;2.20;;;;;;;;;;6183954;23;20034;-80
2022/10/07 15:06:48;;;;;;;11.27;1.85;;;;;;;;;;6176474;23;20026;-80